Time;durP1;ratioP1;P1;durP2;ratioP2;P2;SDS_P1;SDS_P2;PMS_P1;PMS_P2;Temp;Humidity;BMP_temperature;BMP_pressure;BME280_temperature;BME280_humidity;BME280_pressure;Samples;Min_cycle;Max_cycle;Signal;HPM_P1;HPM_P2
2022/11/25 00:00:33;;;;;;;16.90;13.57;;;;;;;4.59;100.00;101027.59;4987104;28;20234;-55
2022/11/25 00:03:00;;;;;;;21.70;14.53;;;;;;;4.73;100.00;101020.16;4981692;28;20316;-54
2022/11/25 00:05:27;;;;;;;16.03;13.07;;;;;;;4.72;100.00;101024.50;4976367;28;20266;-54
2022/11/25 00:07:54;;;;;;;17.37;13.20;;;;;;;4.85;100.00;101024.84;4985518;28;20245;-54
2022/11/25 00:10:20;;;;;;;16.57;12.70;;;;;;;4.91;100.00;101031.06;4989671;28;20671;-54
2022/11/25 00:12:47;;;;;;;16.03;12.83;;;;;;;4.79;100.00;101023.81;4987383;28;20804;-53
2022/11/25 00:15:13;;;;;;;18.23;12.80;;;;;;;4.96;100.00;101033.81;4992470;28;20234;-54
2022/11/25 00:17:41;;;;;;;18.97;14.13;;;;;;;4.79;100.00;101021.22;4998576;28;20248;-53
2022/11/25 00:20:09;;;;;;;16.50;12.07;;;;;;;4.82;100.00;101014.34;4986622;28;20241;-55
2022/11/25 00:22:35;;;;;;;14.17;12.33;;;;;;;4.86;100.00;101016.19;4976769;28;20321;-54
2022/11/25 00:25:02;;;;;;;23.23;14.30;;;;;;;4.76;100.00;101021.13;4988749;28;20233;-53
2022/11/25 00:27:28;;;;;;;16.07;12.70;;;;;;;4.75;100.00;101019.38;4994770;28;20300;-55
2022/11/25 00:29:55;;;;;;;16.40;12.87;;;;;;;4.70;100.00;101023.59;4988546;28;20257;-54
2022/11/25 00:32:22;;;;;;;18.30;13.53;;;;;;;4.79;100.00;101018.63;4984662;28;20774;-54
2022/11/25 00:34:50;;;;;;;15.03;12.90;;;;;;;5.11;100.00;101013.38;4980117;28;20245;-56
2022/11/25 00:37:16;;;;;;;16.10;13.07;;;;;;;5.38;100.00;101023.63;4990043;28;20321;-54
2022/11/25 00:39:43;;;;;;;17.97;12.87;;;;;;;5.37;100.00;101028.75;4999479;28;20230;-53
2022/11/25 00:44:54;;;;;;;15.80;13.20;;;;;;;5.14;100.00;101036.88;4997384;28;20311;-53
2022/11/25 00:47:21;;;;;;;15.17;12.23;;;;;;;5.03;100.00;101038.34;4996428;28;20373;-60
2022/11/25 00:49:50;;;;;;;16.20;13.47;;;;;;;4.93;100.00;101039.81;4987065;28;20762;-54
2022/11/25 00:52:20;;;;;;;15.63;11.47;;;;;;;4.82;100.00;101035.16;4999375;28;20363;-55
2022/11/25 00:54:47;;;;;;;16.67;13.57;;;;;;;4.85;100.00;101033.53;4994300;28;20723;-54
2022/11/25 00:57:15;;;;;;;18.83;13.97;;;;;;;4.79;100.00;101033.34;4992622;28;20627;-53
2022/11/25 00:59:41;;;;;;;15.73;12.13;;;;;;;4.83;100.00;101026.50;4995627;28;20229;-54
2022/11/25 01:02:08;;;;;;;15.50;12.17;;;;;;;4.82;100.00;101025.63;5003009;28;20221;-54
2022/11/25 01:04:35;;;;;;;17.03;13.33;;;;;;;4.83;100.00;101029.13;4993162;28;20324;-54
2022/11/25 01:07:03;;;;;;;16.27;14.10;;;;;;;4.86;100.00;101026.59;4998606;28;20317;-54
2022/11/25 01:09:30;;;;;;;16.73;13.53;;;;;;;4.90;100.00;101028.44;4997604;28;20237;-55
2022/11/25 01:11:57;;;;;;;18.60;15.80;;;;;;;4.93;100.00;101029.41;4999140;28;20263;-54
2022/11/25 01:14:24;;;;;;;17.47;14.80;;;;;;;4.85;100.00;101032.66;5006507;28;20312;-54
2022/11/25 01:16:51;;;;;;;18.07;14.07;;;;;;;4.79;100.00;101036.81;5004685;28;20237;-54
2022/11/25 01:19:19;;;;;;;20.13;15.33;;;;;;;4.76;100.00;101026.34;5000517;28;20258;-54
2022/11/25 01:21:45;;;;;;;16.77;13.77;;;;;;;4.70;100.00;101036.59;4999849;28;20319;-55
2022/11/25 01:24:15;;;;;;;17.13;13.43;;;;;;;4.72;100.00;101024.50;4998505;28;20245;-54
2022/11/25 01:26:43;;;;;;;18.47;15.10;;;;;;;4.69;100.00;101029.59;4997646;28;20251;-54
2022/11/25 01:29:13;;;;;;;19.43;15.47;;;;;;;4.54;100.00;101018.78;4989344;28;20257;-54
2022/11/25 01:31:41;;;;;;;16.97;15.00;;;;;;;4.65;100.00;101027.78;4999541;28;20315;-54
2022/11/25 01:34:13;;;;;;;14.63;13.10;;;;;;;4.69;100.00;101024.41;5003422;28;20225;-54
2022/11/25 01:36:40;;;;;;;18.17;14.00;;;;;;;4.67;100.00;101018.31;4991707;28;20245;-53
2022/11/25 01:39:06;;;;;;;17.93;15.03;;;;;;;4.83;100.00;101011.78;5007868;28;20233;-54
2022/11/25 01:41:35;;;;;;;21.90;15.83;;;;;;;5.01;100.00;101016.59;5003711;28;20316;-56
2022/11/25 01:44:07;;;;;;;17.50;14.43;;;;;;;5.08;100.00;101028.03;5002074;28;20243;-55
2022/11/25 01:46:45;;;;;;;19.23;14.73;;;;;;;5.24;100.00;101018.06;5005677;28;20312;-54
2022/11/25 01:49:15;;;;;;;21.47;15.67;;;;;;;5.47;100.00;101017.75;4997906;28;20228;-54
2022/11/25 01:51:44;;;;;;;17.80;14.97;;;;;;;5.77;100.00;101022.81;5001259;28;20237;-54
2022/11/25 01:54:12;;;;;;;17.57;14.43;;;;;;;6.02;100.00;101015.56;5000624;28;20243;-54
2022/11/25 01:56:45;;;;;;;15.30;12.77;;;;;;;6.27;100.00;101016.97;4998205;28;20256;-56
2022/11/25 01:59:12;;;;;;;18.03;14.87;;;;;;;6.30;100.00;101015.31;4992444;28;20324;-58
2022/11/25 02:01:39;;;;;;;20.13;14.80;;;;;;;6.41;100.00;101005.09;4998329;28;20241;-54
2022/11/25 02:04:05;;;;;;;18.63;15.10;;;;;;;6.31;100.00;101005.75;5004827;28;20316;-54
2022/11/25 02:06:35;;;;;;;22.17;15.93;;;;;;;6.24;100.00;100999.53;5002036;28;20234;-60
2022/11/25 02:09:06;;;;;;;26.10;18.87;;;;;;;5.97;100.00;100994.63;5007691;28;20257;-55
2022/11/25 02:11:34;;;;;;;22.30;16.87;;;;;;;5.87;100.00;100984.81;5004242;28;20951;-55
2022/11/25 02:14:03;;;;;;;21.13;15.63;;;;;;;5.88;100.00;100987.44;5010950;28;20289;-55
2022/11/25 02:16:29;;;;;;;23.00;18.93;;;;;;;5.81;100.00;100997.69;5003082;28;20241;-54
2022/11/25 02:18:56;;;;;;;22.27;17.00;;;;;;;5.71;100.00;100994.88;5004848;28;20345;-55
2022/11/25 02:21:26;;;;;;;25.70;18.87;;;;;;;5.54;100.00;100992.72;5004685;28;20324;-55
2022/11/25 02:23:59;;;;;;;29.17;20.13;;;;;;;5.32;100.00;100996.53;4998326;28;20253;-55
2022/11/25 02:26:27;;;;;;;26.97;20.40;;;;;;;5.43;100.00;100995.06;4984976;28;20268;-54
2022/11/25 02:28:54;;;;;;;29.23;19.77;;;;;;;5.43;100.00;100993.34;4976201;28;20325;-54
2022/11/25 02:31:22;;;;;;;29.27;19.53;;;;;;;5.31;100.00;100997.41;4985063;28;20298;-54
2022/11/25 02:33:49;;;;;;;33.60;20.57;;;;;;;5.34;100.00;100987.06;4987292;28;20559;-54
2022/11/25 02:36:17;;;;;;;31.47;19.93;;;;;;;5.20;100.00;100990.19;5003386;28;20331;-54
2022/11/25 02:38:48;;;;;;;30.00;20.13;;;;;;;5.06;100.00;100994.19;5005947;28;20331;-55
2022/11/25 02:41:17;;;;;;;26.33;18.40;;;;;;;4.95;100.00;101000.81;5001928;28;20309;-55
2022/11/25 02:43:45;;;;;;;27.67;19.80;;;;;;;4.99;100.00;100992.25;4988686;28;20234;-54
2022/11/25 02:46:13;;;;;;;27.47;20.60;;;;;;;4.88;100.00;100998.88;4996532;28;20233;-54
2022/11/25 02:48:42;;;;;;;30.50;20.17;;;;;;;4.65;100.00;101003.50;5001439;28;20309;-54
2022/11/25 02:51:10;;;;;;;29.60;20.50;;;;;;;4.46;100.00;101007.31;4994680;28;20284;-54
2022/11/25 02:53:37;;;;;;;31.23;21.13;;;;;;;4.36;100.00;101015.69;5003648;28;20322;-56
2022/11/25 02:56:04;;;;;;;31.53;22.17;;;;;;;4.47;100.00;101002.13;4995656;28;20329;-54
2022/11/25 02:58:30;;;;;;;29.50;19.60;;;;;;;4.56;100.00;101011.91;4995389;28;20325;-53
2022/11/25 03:00:58;;;;;;;33.63;22.03;;;;;;;4.39;100.00;101015.75;5000912;28;20331;-54
2022/11/25 03:03:25;;;;;;;30.53;20.77;;;;;;;4.35;100.00;101014.78;5003419;28;20670;-53
2022/11/25 03:05:52;;;;;;;31.33;20.97;;;;;;;4.29;100.00;101012.03;4994599;28;20329;-54
2022/11/25 03:08:18;;;;;;;30.87;20.90;;;;;;;4.30;100.00;101025.06;5004838;28;20247;-55
2022/11/25 03:10:45;;;;;;;27.00;19.30;;;;;;;4.26;100.00;101027.53;4995730;28;20225;-55
2022/11/25 03:13:12;;;;;;;27.23;19.93;;;;;;;4.29;100.00;101022.41;5006176;28;20642;-55
2022/11/25 03:15:38;;;;;;;27.00;20.23;;;;;;;4.32;100.00;101030.31;5003459;28;20249;-54
2022/11/25 03:18:07;;;;;;;31.00;20.47;;;;;;;4.28;100.00;101042.34;4995517;28;20230;-54
2022/11/25 03:20:34;;;;;;;27.17;19.87;;;;;;;4.36;100.00;101033.88;5001893;28;20253;-54
2022/11/25 03:23:00;;;;;;;30.53;18.23;;;;;;;4.35;100.00;101032.09;5002780;28;20332;-54
2022/11/25 03:25:27;;;;;;;22.13;15.73;;;;;;;4.33;100.00;101033.78;4994597;28;20971;-54
2022/11/25 03:27:53;;;;;;;22.57;16.83;;;;;;;4.30;100.00;101025.06;4995964;28;20247;-56
2022/11/25 03:30:22;;;;;;;22.73;16.60;;;;;;;4.23;100.00;101017.03;4993069;28;20328;-54
2022/11/25 03:32:49;;;;;;;25.93;16.80;;;;;;;4.42;100.00;101018.44;5003473;28;20267;-54
2022/11/25 03:35:17;;;;;;;22.57;16.70;;;;;;;4.36;100.00;101018.28;4981780;28;20309;-54
2022/11/25 03:37:44;;;;;;;22.77;16.43;;;;;;;4.31;100.00;101026.81;4992011;28;20790;-54
2022/11/25 03:40:13;;;;;;;19.60;14.83;;;;;;;4.37;100.00;101017.44;4994093;28;20243;-55
2022/11/25 03:42:40;;;;;;;20.43;14.37;;;;;;;4.36;100.00;101018.28;5004948;28;20669;-53
2022/11/25 03:45:07;;;;;;;23.87;15.37;;;;;;;4.40;100.00;101025.31;4998483;28;20230;-54
2022/11/25 03:47:34;;;;;;;22.43;15.53;;;;;;;4.37;100.00;101018.31;4993618;28;20233;-54
2022/11/25 03:50:00;;;;;;;17.97;14.80;;;;;;;4.40;100.00;101030.53;4987306;28;20252;-54
2022/11/25 03:52:28;;;;;;;21.57;15.57;;;;;;;4.38;100.00;101022.66;5000590;28;20606;-54
2022/11/25 03:54:55;;;;;;;22.27;15.63;;;;;;;4.42;100.00;101028.84;5002609;28;20348;-54
2022/11/25 03:57:22;;;;;;;18.27;15.00;;;;;;;4.51;100.00;101018.69;4997638;28;20736;-55
2022/11/25 03:59:48;;;;;;;17.73;14.10;;;;;;;4.53;100.00;101024.84;4994451;28;20316;-54
2022/11/25 04:02:15;;;;;;;18.70;14.40;;;;;;;4.51;100.00;101023.91;5002283;28;20233;-54
2022/11/25 04:04:41;;;;;;;16.77;13.53;;;;;;;4.52;100.00;101023.06;5000659;28;20314;-53
2022/11/25 04:07:08;;;;;;;24.50;15.77;;;;;;;4.45;100.00;101021.13;4997257;28;20325;-54
2022/11/25 04:09:36;;;;;;;19.20;15.50;;;;;;;4.40;100.00;101025.31;4996685;28;20280;-55
2022/11/25 04:14:47;;;;;;;14.93;13.33;;;;;;;4.46;100.00;101030.72;5011886;28;20241;-55
2022/11/25 04:17:13;;;;;;;22.60;13.97;;;;;;;4.43;100.00;101028.91;4998284;28;20316;-54
2022/11/25 04:19:40;;;;;;;16.07;13.63;;;;;;;4.46;100.00;101033.31;4993305;28;20323;-54
2022/11/25 04:22:07;;;;;;;19.47;15.13;;;;;;;4.50;100.00;101035.16;4991514;28;20239;-54
2022/11/25 04:24:34;;;;;;;22.40;15.00;;;;;;;4.56;100.00;101027.50;4982902;28;20326;-55
2022/11/25 04:27:02;;;;;;;18.10;15.03;;;;;;;4.55;100.00;101036.16;4987998;28;20245;-54
2022/11/25 04:29:29;;;;;;;25.23;15.17;;;;;;;4.50;100.00;101042.94;4993483;28;20238;-55
2022/11/25 04:31:56;;;;;;;17.90;13.70;;;;;;;4.57;100.00;101044.00;5003183;28;20235;-54
2022/11/25 04:34:23;;;;;;;22.13;14.70;;;;;;;4.75;100.00;101036.72;5002674;28;20232;-54
2022/11/25 04:36:50;;;;;;;19.83;15.13;;;;;;;4.84;100.00;101034.34;5003227;28;20237;-54
2022/11/25 04:39:16;;;;;;;16.30;13.60;;;;;;;4.88;100.00;101035.31;4990443;28;20233;-54
2022/11/25 04:41:43;;;;;;;21.47;13.77;;;;;;;5.16;100.00;101036.91;4976820;28;20256;-55
2022/11/25 04:44:11;;;;;;;17.80;12.93;;;;;;;5.62;100.00;101038.97;4977932;28;20230;-53
2022/11/25 04:46:41;;;;;;;18.07;13.90;;;;;;;5.95;100.00;101032.78;4979717;28;20242;-55
2022/11/25 04:49:08;;;;;;;17.53;13.03;;;;;;;6.10;100.00;101038.34;4979180;28;20242;-55
2022/11/25 04:51:34;;;;;;;19.70;14.40;;;;;;;5.88;100.00;101039.56;4982827;28;20885;-53
2022/11/25 04:54:01;;;;;;;18.57;12.83;;;;;;;5.84;100.00;101042.94;4981008;28;20850;-55
2022/11/25 04:56:28;;;;;;;19.03;12.83;;;;;;;5.80;100.00;101042.84;4977425;28;20262;-54
2022/11/25 05:01:41;;;;;;;18.60;14.00;;;;;;;5.84;100.00;101050.75;4971180;28;20248;-54
2022/11/25 05:04:08;;;;;;;18.50;13.37;;;;;;;5.82;100.00;101044.63;4974111;28;20715;-54
2022/11/25 05:06:35;;;;;;;24.80;15.53;;;;;;;5.81;100.00;101044.59;4968734;28;20242;-54
2022/11/25 05:09:05;;;;;;;19.03;14.70;;;;;;;5.73;100.00;101042.69;4978001;28;20241;-54
2022/11/25 05:11:32;;;;;;;22.50;15.70;;;;;;;5.48;100.00;101051.66;4976005;28;20763;-53
2022/11/25 05:13:59;;;;;;;21.13;14.97;;;;;;;5.34;100.00;101049.53;4982924;28;20244;-55
2022/11/25 05:16:26;;;;;;;22.70;16.17;;;;;;;5.25;100.00;101047.56;4981767;28;20329;-53
2022/11/25 05:18:55;;;;;;;20.27;15.73;;;;;;;5.17;100.00;101051.72;4974707;28;20744;-55
2022/11/25 05:21:22;;;;;;;22.33;15.53;;;;;;;5.12;100.00;101051.56;4976095;28;20264;-54
2022/11/25 05:23:49;;;;;;;23.30;17.23;;;;;;;5.16;100.00;101058.63;4982050;28;20357;-55
2022/11/25 05:26:16;;;;;;;21.13;15.73;;;;;;;5.21;100.00;101056.16;4989048;28;20325;-53
2022/11/25 05:28:43;;;;;;;28.03;15.60;;;;;;;5.33;100.00;101059.06;4997163;28;20271;-55
2022/11/25 05:31:09;;;;;;;21.83;16.40;;;;;;;5.62;100.00;101058.91;4993665;28;20853;-53
2022/11/25 05:33:37;;;;;;;19.63;14.97;;;;;;;5.94;100.00;101062.31;5000794;28;20705;-54
2022/11/25 05:36:06;;;;;;;18.50;14.40;;;;;;;5.96;100.00;101060.59;4998053;28;20257;-55
2022/11/25 05:38:32;;;;;;;21.73;15.77;;;;;;;5.83;100.00;101066.38;4987969;28;20234;-54
2022/11/25 05:41:03;;;;;;;23.90;16.37;;;;;;;5.67;100.00;101062.50;4998394;28;20666;-55
2022/11/25 05:43:30;;;;;;;21.07;15.80;;;;;;;5.58;100.00;101057.97;4993421;28;20309;-55
2022/11/25 05:45:57;;;;;;;22.00;15.93;;;;;;;5.54;100.00;101061.31;4994263;28;20242;-54
2022/11/25 05:48:24;;;;;;;26.83;16.93;;;;;;;5.68;100.00;101065.13;4996953;28;20237;-56
2022/11/25 05:50:51;;;;;;;20.93;16.23;;;;;;;5.68;100.00;101072.06;4996393;28;20283;-57
2022/11/25 05:53:19;;;;;;;24.43;15.70;;;;;;;6.02;100.00;101076.38;4996635;28;20233;-53
2022/11/25 05:55:55;;;;;;;21.40;15.90;;;;;;;6.21;100.00;101073.38;5002044;28;20577;-55
2022/11/25 05:58:22;;;;;;;21.57;14.90;;;;;;;6.03;100.00;101062.50;4986425;28;20309;-55
2022/11/25 06:00:48;;;;;;;21.47;14.93;;;;;;;6.13;100.00;101067.09;4980742;28;20238;-53
2022/11/25 06:03:15;;;;;;;25.67;15.87;;;;;;;6.12;100.00;101067.06;4977107;28;20329;-54
2022/11/25 06:05:42;;;;;;;27.90;16.83;;;;;;;6.05;100.00;101068.66;4982950;28;20642;-55
2022/11/25 06:08:10;;;;;;;23.07;16.43;;;;;;;5.98;100.00;101061.53;4985140;28;20242;-55
2022/11/25 06:10:40;;;;;;;23.07;16.43;;;;;;;5.98;100.00;101058.94;4985194;28;20242;-55
2022/11/25 06:13:07;;;;;;;24.13;16.00;;;;;;;5.91;100.00;101062.22;4976257;28;20713;-54
2022/11/25 06:15:34;;;;;;;22.80;16.07;;;;;;;5.69;100.00;101059.09;4978327;28;20232;-54
2022/11/25 06:18:01;;;;;;;24.73;16.50;;;;;;;5.68;100.00;101059.91;4976366;28;21156;-55
2022/11/25 06:20:28;;;;;;;24.33;15.60;;;;;;;5.72;100.00;101061.78;4980003;28;20661;-54
2022/11/25 06:22:55;;;;;;;21.07;15.07;;;;;;;5.59;100.00;101054.50;4977190;28;20659;-53
2022/11/25 06:25:22;;;;;;;23.57;17.53;;;;;;;5.39;100.00;101059.22;4974698;28;20277;-54
2022/11/25 06:27:50;;;;;;;23.90;17.50;;;;;;;5.44;100.00;101055.03;4975991;28;20236;-54
2022/11/25 06:30:18;;;;;;;21.37;17.13;;;;;;;5.38;100.00;101060.06;4987431;28;20234;-54
2022/11/25 06:32:45;;;;;;;22.40;16.10;;;;;;;5.50;100.00;101049.06;5005845;28;20229;-54
2022/11/25 06:35:12;;;;;;;22.90;17.60;;;;;;;5.35;100.00;101066.91;4995507;28;20252;-54
2022/11/25 06:37:39;;;;;;;24.30;17.07;;;;;;;5.34;100.00;101063.44;5003066;28;20287;-55
2022/11/25 06:40:07;;;;;;;27.00;16.40;;;;;;;5.40;100.00;101058.38;5007159;28;20239;-54
2022/11/25 06:42:34;;;;;;;22.30;17.23;;;;;;;5.30;100.00;101068.50;5007177;28;20650;-55
2022/11/25 06:45:03;;;;;;;24.83;17.53;;;;;;;5.11;100.00;101069.75;4995477;28;20233;-54
2022/11/25 06:47:30;;;;;;;24.07;14.93;;;;;;;5.09;100.00;101072.34;5004242;28;20237;-54
2022/11/25 06:49:57;;;;;;;22.57;16.73;;;;;;;5.23;100.00;101075.31;4993749;28;20338;-56
2022/11/25 06:52:24;;;;;;;21.10;17.37;;;;;;;5.29;100.00;101079.78;5001927;28;20320;-54
2022/11/25 06:54:52;;;;;;;21.93;16.47;;;;;;;5.17;100.00;101078.63;5000349;28;20783;-55
2022/11/25 06:57:20;;;;;;;20.50;15.03;;;;;;;5.08;100.00;101080.09;4997150;28;20333;-53
2022/11/25 06:59:46;;;;;;;20.97;15.47;;;;;;;5.49;100.00;101083.78;4996767;28;20233;-54
2022/11/25 07:02:15;;;;;;;27.93;16.57;;;;;;;5.46;100.00;101086.28;4999876;28;20627;-55
2022/11/25 07:04:42;;;;;;;26.47;17.77;;;;;;;5.42;100.00;101093.16;4990363;28;20909;-54
2022/11/25 07:07:09;;;;;;;21.27;16.97;;;;;;;5.23;100.00;101093.53;4984139;28;20312;-54
2022/11/25 07:09:36;;;;;;;23.20;17.07;;;;;;;5.04;100.00;101099.94;4985924;28;20698;-55
2022/11/25 07:12:04;;;;;;;21.60;15.83;;;;;;;4.91;100.00;101097.84;4993502;28;20319;-53
2022/11/25 07:14:31;;;;;;;25.90;18.13;;;;;;;4.63;100.00;101104.84;4993612;28;20242;-55
2022/11/25 07:16:58;;;;;;;22.60;17.17;;;;;;;4.64;100.00;101117.03;4983247;28;20408;-53
2022/11/25 07:19:26;;;;;;;26.87;17.43;;;;;;;4.52;100.00;101111.47;4991174;28;20479;-54
2022/11/25 07:21:53;;;;;;;27.70;18.47;;;;;;;4.45;100.00;101127.72;4997553;28;20234;-57
2022/11/25 07:24:20;;;;;;;24.17;17.23;;;;;;;4.47;100.00;101126.06;4997253;28;20765;-54
2022/11/25 07:26:47;;;;;;;23.40;15.97;;;;;;;4.46;100.00;101121.69;4990694;28;21035;-54
2022/11/25 07:29:16;;;;;;;24.20;16.37;;;;;;;4.49;100.00;101139.97;4987838;28;20292;-54
2022/11/25 07:31:44;;;;;;;20.80;15.37;;;;;;;4.41;100.00;101131.94;4989672;28;20237;-55
2022/11/25 07:34:13;;;;;;;23.50;16.07;;;;;;;4.43;100.00;101137.19;4999259;28;20229;-56
2022/11/25 07:36:41;;;;;;;27.67;16.97;;;;;;;4.47;100.00;101124.34;4999530;28;20233;-56
2022/11/25 07:39:11;;;;;;;21.80;17.23;;;;;;;4.62;100.00;101126.50;4978942;28;20292;-54
2022/11/25 07:41:39;;;;;;;23.37;16.10;;;;;;;4.63;100.00;101129.97;4976073;28;20253;-53
2022/11/25 07:44:07;;;;;;;26.37;17.17;;;;;;;4.86;100.00;101131.53;4969384;28;20233;-53
2022/11/25 07:46:35;;;;;;;24.10;16.83;;;;;;;4.64;100.00;101130.03;4978425;28;20240;-54
2022/11/25 07:49:06;;;;;;;26.93;17.33;;;;;;;5.09;100.00;101121.78;4974649;28;20240;-54
2022/11/25 07:51:35;;;;;;;21.40;16.27;;;;;;;5.08;100.00;101127.81;4976729;28;20792;-54
2022/11/25 07:54:05;;;;;;;24.23;16.47;;;;;;;5.59;100.00;101122.22;4972958;28;20317;-54
2022/11/25 07:56:33;;;;;;;20.77;15.63;;;;;;;5.55;100.00;101123.00;4975801;28;20281;-55
2022/11/25 07:59:00;;;;;;;20.40;16.10;;;;;;;5.59;100.00;101119.63;4978659;28;20632;-54
2022/11/25 08:01:27;;;;;;;20.17;15.60;;;;;;;5.62;100.00;101117.09;4977747;28;20325;-54
2022/11/25 08:03:54;;;;;;;22.37;15.07;;;;;;;5.58;100.00;101115.25;4968887;28;20246;-54
2022/11/25 08:06:23;;;;;;;18.00;15.03;;;;;;;5.62;100.00;101117.09;4981579;28;20670;-54
2022/11/25 08:08:51;;;;;;;25.33;16.13;;;;;;;5.76;100.00;101109.63;4988060;28;22404;-54
2022/11/25 08:11:21;;;;;;;22.73;16.20;;;;;;;6.03;100.00;101126.78;4999280;28;20237;-54
2022/11/25 08:13:48;;;;;;;20.93;15.37;;;;;;;6.01;100.00;101126.78;5000748;28;20263;-55
2022/11/25 08:16:17;;;;;;;20.60;16.10;;;;;;;5.86;100.00;101132.47;4990377;28;20225;-54
2022/11/25 08:18:44;;;;;;;22.93;14.80;;;;;;;5.86;100.00;101131.56;4994856;28;20766;-55
2022/11/25 08:21:13;;;;;;;21.80;16.17;;;;;;;5.83;100.00;101135.00;4991485;28;20244;-55
2022/11/25 08:23:42;;;;;;;21.30;15.23;;;;;;;5.78;100.00;101138.31;4995788;28;20238;-54
2022/11/25 08:26:11;;;;;;;22.40;15.43;;;;;;;5.78;100.00;101143.53;4993030;28;20263;-54
2022/11/25 08:28:40;;;;;;;19.80;15.23;;;;;;;5.82;100.00;101140.16;4997221;28;20912;-55
2022/11/25 08:31:08;;;;;;;22.20;14.07;;;;;;;5.84;100.00;101134.13;4996051;28;20239;-53
2022/11/25 08:33:35;;;;;;;21.33;15.33;;;;;;;5.94;100.00;101141.38;4998479;28;20637;-54
2022/11/25 08:36:02;;;;;;;24.53;16.50;;;;;;;6.06;100.00;101146.00;4989486;28;20332;-53
2022/11/25 08:38:29;;;;;;;17.93;14.23;;;;;;;6.00;100.00;101145.84;4998384;28;20238;-53
2022/11/25 08:40:56;;;;;;;19.33;14.33;;;;;;;5.82;100.00;101150.56;4998372;28;20256;-53
2022/11/25 08:43:23;;;;;;;17.80;13.63;;;;;;;5.79;100.00;101147.88;5000018;28;20333;-58
2022/11/25 08:45:51;;;;;;;23.43;15.07;;;;;;;5.75;100.00;101150.41;4994681;28;20701;-55
2022/11/25 08:48:20;;;;;;;16.17;13.93;;;;;;;5.86;100.00;101148.09;4999191;28;20287;-54
2022/11/25 08:50:51;;;;;;;19.27;14.83;;;;;;;5.86;100.00;101148.09;5000432;28;20232;-54
2022/11/25 08:53:18;;;;;;;21.50;14.97;;;;;;;5.83;100.00;101144.53;4989215;28;20230;-55
2022/11/25 08:55:45;;;;;;;19.83;13.40;;;;;;;5.97;100.00;101140.56;4990067;28;20230;-56
2022/11/25 08:58:12;;;;;;;21.80;14.63;;;;;;;5.91;100.00;101140.38;4999599;28;22243;-55
2022/11/25 09:00:40;;;;;;;15.20;13.13;;;;;;;5.95;100.00;101150.06;4995622;28;20229;-54
2022/11/25 09:03:08;;;;;;;15.50;12.87;;;;;;;5.99;100.00;101146.69;4997218;28;20235;-54
2022/11/25 09:05:39;;;;;;;15.30;13.50;;;;;;;6.00;100.00;101148.44;5000132;28;20229;-53
2022/11/25 09:08:07;;;;;;;13.37;11.13;;;;;;;6.03;100.00;101151.13;4999404;28;20233;-54
2022/11/25 09:10:34;;;;;;;15.80;11.90;;;;;;;6.14;100.00;101147.06;5001399;28;20229;-54
2022/11/25 09:13:01;;;;;;;17.30;13.53;;;;;;;6.20;100.00;101148.91;5003358;28;20241;-53
2022/11/25 09:15:28;;;;;;;14.43;12.10;;;;;;;6.24;100.00;101161.19;4997815;28;20233;-54
2022/11/25 09:17:59;;;;;;;17.57;13.63;;;;;;;6.17;100.00;101160.16;4993333;28;20241;-56
2022/11/25 09:20:28;;;;;;;20.60;13.57;;;;;;;6.18;100.00;101158.44;4996804;28;20299;-54
2022/11/25 09:22:54;;;;;;;17.03;13.33;;;;;;;6.11;100.00;101154.81;4997828;28;20229;-54
2022/11/25 09:25:22;;;;;;;21.50;13.60;;;;;;;6.21;100.00;101166.31;4993226;28;20233;-55
2022/11/25 09:27:49;;;;;;;21.10;12.77;;;;;;;6.41;100.00;101158.97;4991142;28;20805;-54
2022/11/25 09:30:16;;;;;;;16.63;12.90;;;;;;;6.60;100.00;101155.94;4999145;28;20386;-56
2022/11/25 09:32:43;;;;;;;19.80;14.03;;;;;;;6.63;100.00;101160.31;5000969;28;20311;-54
2022/11/25 09:35:14;;;;;;;20.10;13.93;;;;;;;6.61;100.00;101157.69;5002332;28;20265;-55
2022/11/25 09:37:58;;;;;;;18.70;13.33;;;;;;;6.47;100.00;101156.50;5001384;28;20248;-56
2022/11/25 09:40:32;;;;;;;17.73;13.37;;;;;;;6.59;100.00;101158.50;4989686;28;20232;-56
2022/11/25 09:48:54;;;;;;;19.83;14.57;;;;;;;6.52;100.00;101151.38;4990802;28;20304;-54
2022/11/25 09:51:24;;;;;;;21.33;13.70;;;;;;;6.45;100.00;101142.53;4987750;28;20250;-55
2022/11/25 09:53:54;;;;;;;18.50;14.33;;;;;;;6.48;100.00;101147.81;4988612;28;20313;-55
2022/11/25 09:56:33;;;;;;;20.60;13.50;;;;;;;6.55;100.00;101149.72;4987421;28;20381;-54
2022/11/25 09:59:03;;;;;;;18.97;14.53;;;;;;;6.46;100.00;101146.94;4986744;28;20222;-53
2022/11/25 10:01:31;;;;;;;21.63;15.70;;;;;;;6.60;100.00;101145.50;4988865;28;20422;-53
2022/11/25 10:04:01;;;;;;;21.37;15.37;;;;;;;6.57;100.00;101150.66;5004285;28;20320;-54
2022/11/25 10:06:29;;;;;;;22.57;15.53;;;;;;;6.60;100.00;101144.59;4996329;28;20267;-53
2022/11/25 10:08:59;;;;;;;20.20;15.30;;;;;;;6.49;100.00;101146.09;4993468;28;20751;-54
2022/11/25 10:11:35;;;;;;;22.33;15.20;;;;;;;6.50;100.00;101140.94;4999760;28;20234;-53
2022/11/25 10:14:06;;;;;;;22.17;15.53;;;;;;;6.59;100.00;101141.09;4994446;28;20673;-53
2022/11/25 10:16:36;;;;;;;20.43;15.37;;;;;;;6.53;100.00;101142.69;4977054;28;20235;-55
2022/11/25 10:19:10;;;;;;;19.30;14.37;;;;;;;6.52;100.00;101136.59;4976158;28;20879;-53
2022/11/25 10:21:37;;;;;;;18.30;13.83;;;;;;;6.56;100.00;101138.44;4979921;28;20232;-54
2022/11/25 10:24:06;;;;;;;23.03;15.17;;;;;;;6.58;100.00;101141.09;4986006;28;20522;-54
2022/11/25 10:26:37;;;;;;;21.30;15.77;;;;;;;6.67;100.00;101142.19;4983379;28;20325;-55
2022/11/25 10:29:17;;;;;;;20.17;15.00;;;;;;;6.60;100.00;101144.59;4977288;28;20322;-54
2022/11/25 10:31:44;;;;;;;22.47;15.63;;;;;;;6.58;100.00;101147.19;4990056;28;20342;-53
2022/11/25 10:34:23;;;;;;;20.97;15.10;;;;;;;6.68;100.00;101143.06;4998322;28;20230;-54
2022/11/25 10:36:51;;;;;;;17.07;12.50;;;;;;;6.88;100.00;101144.34;4998140;28;20237;-52
2022/11/25 10:39:23;;;;;;;24.13;16.03;;;;;;;7.05;100.00;101143.78;5002816;28;20233;-54
2022/11/25 10:42:00;;;;;;;22.40;16.10;;;;;;;7.04;100.00;101153.38;5000318;28;20256;-53
2022/11/25 10:44:29;;;;;;;18.83;15.87;;;;;;;6.99;100.00;101154.13;4990808;28;20624;-53
2022/11/25 10:47:08;;;;;;;18.53;14.63;;;;;;;7.07;100.00;101156.03;4974928;28;20317;-53
2022/11/25 10:49:38;;;;;;;19.83;16.10;;;;;;;7.06;100.00;101151.69;4979718;28;20247;-53
2022/11/25 10:52:10;;;;;;;19.93;13.53;;;;;;;7.02;100.00;101159.41;4981067;28;20317;-54
2022/11/25 10:54:38;;;;;;;20.77;15.47;;;;;;;6.98;100.00;101153.22;4981941;28;20253;-54
2022/11/25 10:57:17;;;;;;;19.83;15.50;;;;;;;7.04;100.00;101157.72;4989371;28;20268;-52
2022/11/25 10:59:55;;;;;;;16.70;13.40;;;;;;;7.10;100.00;101153.50;4983765;28;20240;-55
2022/11/25 11:02:25;;;;;;;17.20;13.23;;;;;;;7.05;100.00;101155.13;4999141;28;20256;-53
2022/11/25 11:04:56;;;;;;;18.57;13.37;;;;;;;6.87;100.00;101150.41;4996846;28;20757;-55
2022/11/25 11:07:23;;;;;;;18.67;14.43;;;;;;;6.98;100.00;101153.22;4997328;28;20243;-53
2022/11/25 11:09:51;;;;;;;18.17;14.57;;;;;;;6.78;100.00;101150.22;5003897;28;20823;-54
2022/11/25 11:12:22;;;;;;;19.20;15.00;;;;;;;6.85;100.00;101152.13;4998650;28;20232;-55
2022/11/25 11:14:49;;;;;;;20.03;15.17;;;;;;;6.98;100.00;101147.13;5000098;28;20332;-53
2022/11/25 11:17:31;;;;;;;19.60;15.90;;;;;;;7.15;100.00;101154.44;4997859;28;20244;-52
2022/11/25 11:20:02;;;;;;;23.30;18.30;;;;;;;7.08;100.00;101152.56;4997754;28;20759;-53
2022/11/25 11:22:29;;;;;;;22.47;17.00;;;;;;;7.13;100.00;101148.34;5002810;28;20241;-56
2022/11/25 11:25:07;;;;;;;21.23;18.93;;;;;;;7.14;100.00;101147.47;4997234;28;20239;-53
2022/11/25 11:27:37;;;;;;;25.73;17.83;;;;;;;7.36;100.00;101150.50;4999051;28;20249;-53